Station Historical Data
Daily Summary for November 26, 2017 Units:  English    Metric   Both
« Previous Day
Next Day »
Daily Weekly Monthly Yearly Custom
  High: Low: Average:
Temperature: 60.9 °F 45.4 °F 53.2 °F
Dew Point: 49.2 °F 39.2 °F 45 °F
Humidity: 96 % 45 % 76 %
Wind Speed: 18.0 mph 0.0 mph 5.3 mph
Wind Gust: 23.0 mph - -
Wind:- - South
Pressure: 30.07 in 29.89 in -
Precipitation: 0.00 in    
Historical Graphs
 
 
Tabular Data for November 26, 2017
Time Temperature Dew Point Pressure Wind Wind Speed Wind Gust Humidity Rainfall Rate (Hourly) solar
00:03 57.2 °F 41.7 °F 30.05 in SE 6.0 mph 13.0 mph 56 % 0.00 in 0.00 W/m2
00:08 57.3 °F 41.3 °F 30.06 in SE 8.0 mph 10.0 mph 55 % 0.00 in 0.00 W/m2
00:13 57.5 °F 41.5 °F 30.06 in SE 9.0 mph 13.0 mph 55 % 0.00 in 0.00 W/m2
00:18 57.6 °F 42.5 °F 30.06 in SE 9.0 mph 11.0 mph 57 % 0.00 in 0.00 W/m2
00:28 57.6 °F 43.4 °F 30.06 in SE 5.0 mph 8.0 mph 59 % 0.00 in 0.00 W/m2
00:33 57.5 °F 43.3 °F 30.07 in SSE 5.0 mph 10.0 mph 59 % 0.00 in 0.00 W/m2
00:38 57.3 °F 43.1 °F 30.06 in SE 8.0 mph 12.0 mph 59 % 0.00 in 0.00 W/m2
00:43 57.2 °F 43.0 °F 30.06 in SE 7.0 mph 12.0 mph 59 % 0.00 in 0.00 W/m2
00:48 57.1 °F 42.9 °F 30.05 in SE 5.0 mph 10.0 mph 59 % 0.00 in 0.00 W/m2
00:53 57.0 °F 42.8 °F 30.05 in SE 8.0 mph 11.0 mph 59 % 0.00 in 0.00 W/m2
01:03 57.0 °F 43.7 °F 30.05 in SE 4.0 mph 9.0 mph 61 % 0.00 in 0.00 W/m2
01:09 57.0 °F 43.3 °F 30.05 in SE 2.0 mph 8.0 mph 60 % 0.00 in 0.00 W/m2
01:14 57.0 °F 42.8 °F 30.04 in Calm   13.0 mph 59 % 0.00 in 0.00 W/m2
01:19 56.9 °F 41.8 °F 30.05 in SE 1.0 mph 9.0 mph 57 % 0.00 in 0.00 W/m2
01:24 57.0 °F 42.4 °F 30.06 in SE 6.0 mph 8.0 mph 58 % 0.00 in 0.00 W/m2
01:29 57.0 °F 42.4 °F 30.06 in Calm   7.0 mph 58 % 0.00 in 0.00 W/m2
01:34 57.0 °F 43.3 °F 30.06 in Calm   6.0 mph 60 % 0.00 in 0.00 W/m2
01:39 56.9 °F 43.2 °F 30.06 in Calm   6.0 mph 60 % 0.00 in 0.00 W/m2
01:44 56.8 °F 43.1 °F 30.06 in SE 5.0 mph 6.0 mph 60 % 0.00 in 0.00 W/m2
01:49 56.6 °F 42.9 °F 30.06 in Calm   6.0 mph 60 % 0.00 in 0.00 W/m2
01:54 56.3 °F 43.0 °F 30.06 in Calm   1.0 mph 61 % 0.00 in 0.00 W/m2
01:59 56.2 °F 42.5 °F 30.06 in SE 4.0 mph 6.0 mph 60 % 0.00 in 0.00 W/m2
02:04 56.0 °F 42.3 °F 30.06 in Calm     60 % 0.00 in 0.00 W/m2
02:09 55.9 °F 43.1 °F 30.06 in Calm   6.0 mph 62 % 0.00 in 0.00 W/m2
02:14 55.8 °F 42.6 °F 30.05 in SE 2.0 mph 8.0 mph 61 % 0.00 in 0.00 W/m2
02:19 55.8 °F 43.0 °F 30.06 in SE 6.0 mph 8.0 mph 62 % 0.00 in 0.00 W/m2
02:24 55.8 °F 43.0 °F 30.05 in SE 5.0 mph 8.0 mph 62 % 0.00 in 0.00 W/m2
02:29 55.8 °F 43.0 °F 30.04 in Calm   8.0 mph 62 % 0.00 in 0.00 W/m2
02:34 55.8 °F 43.4 °F 30.04 in SE 7.0 mph 9.0 mph 63 % 0.00 in 0.00 W/m2
02:39 55.9 °F 42.7 °F 30.04 in SE 4.0 mph 9.0 mph 61 % 0.00 in 0.00 W/m2
02:44 55.9 °F 42.7 °F 30.03 in SE 2.0 mph 12.0 mph 61 % 0.00 in 0.00 W/m2
02:49 55.9 °F 42.7 °F 30.03 in Calm   13.0 mph 61 % 0.00 in 0.00 W/m2
02:59 56.1 °F 42.4 °F 30.04 in SE 2.0 mph 11.0 mph 60 % 0.00 in 0.00 W/m2
03:04 56.2 °F 43.0 °F 30.04 in Calm   9.0 mph 61 % 0.00 in 0.00 W/m2
03:09 56.3 °F 42.6 °F 30.04 in SSE 7.0 mph 9.0 mph 60 % 0.00 in 0.00 W/m2
03:14 56.3 °F 43.0 °F 30.04 in SE 2.0 mph 8.0 mph 61 % 0.00 in 0.00 W/m2
03:19 56.3 °F 42.6 °F 30.04 in Calm   8.0 mph 60 % 0.00 in 0.00 W/m2
03:24 56.3 °F 42.6 °F 30.04 in Calm   8.0 mph 60 % 0.00 in 0.00 W/m2
03:29 56.3 °F 42.6 °F 30.03 in SE 2.0 mph 8.0 mph 60 % 0.00 in 0.00 W/m2
03:34 56.3 °F 42.2 °F 30.03 in SE 5.0 mph 9.0 mph 59 % 0.00 in 0.00 W/m2
03:39 56.3 °F 43.0 °F 30.02 in SE 4.0 mph 12.0 mph 61 % 0.00 in 0.00 W/m2
03:49 56.3 °F 42.6 °F 30.01 in ESE 6.0 mph 13.0 mph 60 % 0.00 in 0.00 W/m2
03:55 56.3 °F 42.2 °F 30.01 in SE 9.0 mph 12.0 mph 59 % 0.00 in 0.00 W/m2
04:00 56.3 °F 42.2 °F 30.01 in SE 11.0 mph 13.0 mph 59 % 0.00 in 0.00 W/m2
04:05 56.4 °F 41.4 °F 30.01 in SE 8.0 mph 14.0 mph 57 % 0.00 in 0.00 W/m2
04:10 56.5 °F 41.9 °F 30.02 in SE 5.0 mph 14.0 mph 58 % 0.00 in 0.00 W/m2
04:15 56.6 °F 41.6 °F 30.02 in SE 10.0 mph 19.0 mph 57 % 0.00 in 0.00 W/m2
04:20 56.7 °F 42.1 °F 30.02 in SSE 9.0 mph 17.0 mph 58 % 0.00 in 0.00 W/m2
04:25 56.9 °F 40.9 °F 30.01 in SE 4.0 mph 15.0 mph 55 % 0.00 in 0.00 W/m2
04:30 57.0 °F 41.0 °F 30.01 in SSE 6.0 mph 15.0 mph 55 % 0.00 in 0.00 W/m2
04:35 57.3 °F 40.8 °F 30.01 in SSE 9.0 mph 18.0 mph 54 % 0.00 in 0.00 W/m2
04:40 57.6 °F 40.1 °F 30.01 in SSE 5.0 mph 15.0 mph 52 % 0.00 in 0.00 W/m2
04:45 58.0 °F 41.0 °F 30.02 in SSE 14.0 mph 17.0 mph 53 % 0.00 in 0.00 W/m2
04:50 58.5 °F 41.0 °F 30.01 in South 11.0 mph 22.0 mph 52 % 0.00 in 0.00 W/m2
04:55 58.8 °F 40.7 °F 30.01 in SSE 11.0 mph 18.0 mph 51 % 0.00 in 0.00 W/m2
05:00 59.2 °F 40.6 °F 30.00 in SSE 10.0 mph 17.0 mph 50 % 0.00 in 0.00 W/m2
05:05 59.5 °F 40.9 °F 30.00 in SSE 15.0 mph 20.0 mph 50 % 0.00 in 0.00 W/m2
05:10 59.7 °F 40.0 °F 30.01 in ESE 5.0 mph 17.0 mph 48 % 0.00 in 0.00 W/m2
05:15 59.9 °F 40.2 °F 30.00 in SSE 14.0 mph 20.0 mph 48 % 0.00 in 0.00 W/m2
05:20 60.1 °F 40.9 °F 29.99 in South 17.0 mph 17.0 mph 49 % 0.00 in 0.00 W/m2
05:25 60.1 °F 40.9 °F 30.01 in South 10.0 mph 13.0 mph 49 % 0.00 in 0.00 W/m2
05:30 60.1 °F 41.9 °F 30.00 in Calm   1.0 mph 51 % 0.00 in 0.00 W/m2
05:35 60.0 °F 40.3 °F 30.01 in SSE 5.0 mph 6.0 mph 48 % 0.00 in 0.00 W/m2
05:40 60.1 °F 40.4 °F 30.00 in South 4.0 mph 8.0 mph 48 % 0.00 in 0.00 W/m2
05:45 60.2 °F 40.5 °F 29.99 in SSE 10.0 mph 10.0 mph 48 % 0.00 in 0.00 W/m2
05:50 60.3 °F 40.0 °F 30.01 in SSE 8.0 mph 16.0 mph 47 % 0.00 in 0.00 W/m2
05:56 60.3 °F 40.0 °F 30.01 in SSE 7.0 mph 8.0 mph 47 % 0.00 in 0.00 W/m2
06:01 60.4 °F 40.1 °F 29.99 in SSE 11.0 mph 11.0 mph 47 % 0.00 in 0.00 W/m2
06:06 60.5 °F 40.7 °F 30.00 in South 8.0 mph 14.0 mph 48 % 0.00 in 0.00 W/m2
06:11 60.5 °F 39.6 °F 30.00 in SSE 8.0 mph 8.0 mph 46 % 0.00 in 0.00 W/m2
06:16 60.5 °F 40.2 °F 30.00 in SE 12.0 mph 21.0 mph 47 % 0.00 in 0.00 W/m2
06:21 60.6 °F 39.2 °F 29.99 in SE 6.0 mph 12.0 mph 45 % 0.00 in 0.00 W/m2
06:26 60.7 °F 39.8 °F 30.00 in SSE 12.0 mph 14.0 mph 46 % 0.00 in 0.00 W/m2
06:31 60.8 °F 39.9 °F 30.01 in SSE 14.0 mph 14.0 mph 46 % 0.00 in 0.00 W/m2
06:36 60.8 °F 39.3 °F 30.01 in South 6.0 mph 8.0 mph 45 % 0.00 in 0.00 W/m2
06:41 60.9 °F 39.4 °F 30.01 in SSE 1.0 mph 5.0 mph 45 % 0.00 in 0.00 W/m2
06:46 60.9 °F 39.4 °F 30.01 in South 10.0 mph 11.0 mph 45 % 0.00 in 0.00 W/m2
06:51 60.8 °F 39.9 °F 30.01 in SSE 5.0 mph 8.0 mph 46 % 0.00 in 0.00 W/m2
06:56 60.8 °F 39.9 °F 30.00 in South 10.0 mph 10.0 mph 46 % 0.00 in 0.00 W/m2
07:01 60.7 °F 39.8 °F 30.00 in Calm   1.0 mph 46 % 0.00 in 0.00 W/m2
07:06 60.5 °F 39.6 °F 30.01 in South 8.0 mph 13.0 mph 46 % 0.00 in 0.00 W/m2
07:11 60.4 °F 40.1 °F 30.00 in Calm   4.0 mph 47 % 0.00 in 0.00 W/m2
07:16 60.3 °F 40.0 °F 30.01 in SSE 7.0 mph 9.0 mph 47 % 0.00 in 0.00 W/m2
07:21 60.2 °F 39.9 °F 30.01 in SSE 4.0 mph 8.0 mph 47 % 0.00 in 5.00 W/m2
07:26 60.2 °F 40.5 °F 30.01 in Calm   1.0 mph 48 % 0.00 in 7.00 W/m2
07:31 60.0 °F 40.3 °F 30.01 in SSE 10.0 mph 12.0 mph 48 % 0.00 in 5.00 W/m2
07:36 59.9 °F 40.7 °F 30.01 in South 10.0 mph 13.0 mph 49 % 0.00 in 7.00 W/m2
07:41 59.8 °F 40.1 °F 30.01 in SSE 9.0 mph 13.0 mph 48 % 0.00 in 9.00 W/m2
07:46 59.8 °F 40.1 °F 30.01 in South 10.0 mph 13.0 mph 48 % 0.00 in 7.00 W/m2
07:51 59.7 °F 40.5 °F 30.01 in South 11.0 mph 15.0 mph 49 % 0.00 in 11.00 W/m2
07:56 59.6 °F 40.4 °F 30.00 in SSE 7.0 mph 11.0 mph 49 % 0.00 in 12.00 W/m2
08:01 59.6 °F 41.0 °F 30.01 in South 10.0 mph 11.0 mph 50 % 0.00 in 12.00 W/m2
08:06 59.4 °F 42.8 °F 30.00 in Calm   1.0 mph 54 % 0.00 in 12.00 W/m2
08:11 59.1 °F 43.0 °F 30.00 in Calm     55 % 0.00 in 11.00 W/m2
08:16 58.8 °F 43.2 °F 30.01 in Calm   1.0 mph 56 % 0.00 in 11.00 W/m2
08:21 58.6 °F 41.5 °F 30.00 in Calm   1.0 mph 53 % 0.00 in 12.00 W/m2
08:26 58.4 °F 42.3 °F 30.01 in Calm   1.0 mph 55 % 0.00 in 12.00 W/m2
08:31 58.2 °F 42.1 °F 30.00 in Calm   1.0 mph 55 % 0.00 in 18.00 W/m2
08:41 57.8 °F 44.0 °F 30.00 in Calm     60 % 0.00 in 28.00 W/m2
08:46 57.5 °F 44.2 °F 30.00 in Calm     61 % 0.00 in 35.00 W/m2
08:51 57.2 °F 43.0 °F 30.00 in Calm     59 % 0.00 in 33.00 W/m2
08:56 57.0 °F 43.3 °F 30.01 in Calm     60 % 0.00 in 35.00 W/m2
09:01 56.9 °F 44.0 °F 30.00 in SSE 9.0 mph 14.0 mph 62 % 0.00 in 30.00 W/m2
09:06 56.7 °F 44.3 °F 30.00 in South 4.0 mph 11.0 mph 63 % 0.00 in 26.00 W/m2
09:11 56.5 °F 42.8 °F 30.01 in South 9.0 mph 10.0 mph 60 % 0.00 in 30.00 W/m2
09:16 56.4 °F 43.6 °F 30.02 in South 9.0 mph 11.0 mph 62 % 0.00 in 25.00 W/m2
09:21 56.4 °F 44.0 °F 30.01 in Calm     63 % 0.00 in 25.00 W/m2
09:27 56.3 °F 44.7 °F 30.00 in Calm   1.0 mph 65 % 0.00 in 28.00 W/m2
09:32 56.2 °F 45.0 °F 30.02 in Calm   7.0 mph 66 % 0.00 in 35.00 W/m2
09:37 56.1 °F 44.5 °F 30.01 in South 1.0 mph 1.0 mph 65 % 0.00 in 32.00 W/m2
09:42 56.0 °F 44.4 °F 30.02 in Calm   1.0 mph 65 % 0.00 in 33.00 W/m2
09:47 56.0 °F 44.4 °F 30.02 in Calm   1.0 mph 65 % 0.00 in 35.00 W/m2
09:52 56.0 °F 44.4 °F 30.02 in Calm     65 % 0.00 in 39.00 W/m2
09:57 56.0 °F 44.4 °F 30.02 in Calm   1.0 mph 65 % 0.00 in 33.00 W/m2
10:02 55.9 °F 44.3 °F 30.01 in Calm   1.0 mph 65 % 0.00 in 47.00 W/m2
10:07 55.9 °F 44.7 °F 30.01 in SE 18.0 mph 18.0 mph 66 % 0.00 in 54.00 W/m2
10:12 55.9 °F 44.3 °F 29.99 in SSE 8.0 mph 14.0 mph 65 % 0.00 in 70.00 W/m2
10:17 55.9 °F 44.3 °F 30.01 in South 8.0 mph 15.0 mph 65 % 0.00 in 37.00 W/m2
10:22 55.9 °F 44.7 °F 30.01 in SSE 1.0 mph 11.0 mph 66 % 0.00 in 32.00 W/m2
10:27 56.0 °F 44.4 °F 30.00 in SSW 4.0 mph 8.0 mph 65 % 0.00 in 49.00 W/m2
10:32 55.9 °F 44.3 °F 30.00 in South 9.0 mph 14.0 mph 65 % 0.00 in 46.00 W/m2
10:37 55.9 °F 44.7 °F 30.02 in SSW 8.0 mph 9.0 mph 66 % 0.00 in 42.00 W/m2
10:42 56.0 °F 45.2 °F 30.02 in Calm   13.0 mph 67 % 0.00 in 23.00 W/m2
10:47 55.9 °F 45.5 °F 30.01 in SW 3.0 mph 8.0 mph 68 % 0.00 in 26.00 W/m2
10:53 55.8 °F 45.8 °F 30.00 in SW 5.0 mph 16.0 mph 69 % 0.00 in 23.00 W/m2
10:58 55.7 °F 45.7 °F 30.00 in SSE 6.0 mph 14.0 mph 69 % 0.00 in 26.00 W/m2
11:03 55.5 °F 45.5 °F 30.00 in South 13.0 mph 13.0 mph 69 % 0.00 in 26.00 W/m2
11:08 55.4 °F 46.2 °F 29.99 in South 5.0 mph 12.0 mph 71 % 0.00 in 30.00 W/m2
11:13 55.2 °F 46.7 °F 30.00 in WSW 5.0 mph 10.0 mph 73 % 0.00 in 28.00 W/m2
11:18 54.8 °F 47.4 °F 29.99 in South 1.0 mph 13.0 mph 76 % 0.00 in 33.00 W/m2
11:23 54.4 °F 46.7 °F 29.99 in Calm   10.0 mph 75 % 0.00 in 25.00 W/m2
11:28 54.1 °F 47.4 °F 29.99 in SSW 7.0 mph 12.0 mph 78 % 0.00 in 23.00 W/m2
11:33 53.9 °F 46.9 °F 30.00 in Calm   1.0 mph 77 % 0.00 in 19.00 W/m2
11:38 53.8 °F 46.8 °F 30.00 in SSW 10.0 mph 12.0 mph 77 % 0.00 in 19.00 W/m2
11:43 53.7 °F 46.3 °F 30.00 in Calm   11.0 mph 76 % 0.00 in 16.00 W/m2
11:48 53.7 °F 46.3 °F 30.01 in SW 6.0 mph 14.0 mph 76 % 0.00 in 16.00 W/m2
11:53 53.6 °F 46.6 °F 30.00 in Calm   10.0 mph 77 % 0.00 in 26.00 W/m2
11:58 53.5 °F 46.5 °F 29.98 in Calm     77 % 0.00 in 44.00 W/m2
12:03 53.4 °F 47.4 °F 29.98 in Calm     80 % 0.00 in 42.00 W/m2
12:04 53.4 °F 47.4 °F 29.98 in Calm     80 % 0.00 in 42.00 W/m2
12:09 53.2 °F 47.5 °F 29.98 in Calm     81 % 0.00 in 37.00 W/m2
12:14 53.2 °F 47.9 °F 30.00 in Calm     82 % 0.00 in 21.00 W/m2
12:19 53.0 °F 47.7 °F 30.01 in Calm   1.0 mph 82 % 0.00 in 19.00 W/m2
12:24 52.8 °F 47.8 °F 30.03 in West 8.0 mph 14.0 mph 83 % 0.00 in 11.00 W/m2
12:29 52.7 °F 47.7 °F 30.01 in Calm   8.0 mph 83 % 0.00 in 14.00 W/m2
12:34 52.5 °F 47.8 °F 30.01 in Calm   10.0 mph 84 % 0.00 in 12.00 W/m2
12:39 52.2 °F 49.1 °F 29.98 in Calm   8.0 mph 89 % 0.00 in 14.00 W/m2
12:44 51.7 °F 48.0 °F 29.98 in Calm     87 % 0.09 in 11.00 W/m2
12:49 51.5 °F 48.1 °F 30.00 in Calm     88 % 0.07 in 14.00 W/m2
12:54 51.4 °F 48.3 °F 30.00 in Calm     89 % 0.05 in 14.00 W/m2
12:59 51.2 °F 48.1 °F 29.98 in Calm     89 % 0.05 in 9.00 W/m2
13:04 51.1 °F 48.3 °F 30.02 in Calm     90 % 0.05 in 9.00 W/m2
13:09 51.0 °F 48.2 °F 29.99 in SSE 5.0 mph 9.0 mph 90 % 0.04 in 12.00 W/m2
13:14 50.9 °F 48.4 °F 29.97 in SE 6.0 mph 14.0 mph 91 % 0.57 in 12.00 W/m2
13:19 50.8 °F 48.3 °F 29.94 in SE 13.0 mph 17.0 mph 91 % 0.37 in 11.00 W/m2
13:24 50.6 °F 48.1 °F 29.98 in SE 6.0 mph 13.0 mph 91 % 0.18 in 9.00 W/m2
13:29 50.4 °F 47.9 °F 29.97 in SSE 17.0 mph 20.0 mph 91 % 0.40 in 14.00 W/m2
13:34 50.2 °F 48.0 °F 29.96 in SSE 8.0 mph 13.0 mph 92 % 0.22 in 12.00 W/m2
13:39 50.2 °F 48.0 °F 29.97 in SSE 4.0 mph 12.0 mph 92 % 0.12 in 14.00 W/m2
13:44 50.1 °F 47.9 °F 29.94 in ESE 9.0 mph 14.0 mph 92 % 0.23 in 23.00 W/m2
13:49 50.0 °F 47.8 °F 29.95 in SE 9.0 mph 17.0 mph 92 % 0.10 in 19.00 W/m2
13:54 49.9 °F 47.7 °F 29.94 in SSE 4.0 mph 13.0 mph 92 % 0.09 in 19.00 W/m2
13:59 49.9 °F 47.7 °F 29.95 in SE 5.0 mph 17.0 mph 92 % 0.07 in 16.00 W/m2
14:04 49.8 °F 47.6 °F 29.95 in SSE 7.0 mph 15.0 mph 92 % 0.06 in 14.00 W/m2
14:09 49.7 °F 47.8 °F 29.94 in SE 8.0 mph 18.0 mph 93 % 0.22 in 16.00 W/m2
14:14 49.7 °F 47.5 °F 29.96 in SE 11.0 mph 19.0 mph 92 % 0.20 in 11.00 W/m2
14:19 49.6 °F 47.4 °F 29.95 in SSE 10.0 mph 13.0 mph 92 % 0.19 in 21.00 W/m2
14:24 49.6 °F 47.7 °F 29.93 in SE 16.0 mph 20.0 mph 93 % 0.10 in 19.00 W/m2
14:29 49.5 °F 47.6 °F 29.95 in SE 8.0 mph 20.0 mph 93 % 0.20 in 7.00 W/m2
14:35 49.4 °F 47.5 °F 29.93 in Calm   21.0 mph 93 % 0.87 in 14.00 W/m2
14:40 49.3 °F 47.4 °F 29.92 in ESE 2.0 mph 16.0 mph 93 % 0.25 in 16.00 W/m2
14:45 49.2 °F 47.3 °F 29.93 in SE 12.0 mph 21.0 mph 93 % 0.12 in 9.00 W/m2
14:50 49.1 °F 47.2 °F 29.92 in SSE 9.0 mph 23.0 mph 93 % 0.47 in 14.00 W/m2
15:00 49.0 °F 47.1 °F 29.93 in SSE 8.0 mph 17.0 mph 93 % 0.19 in 11.00 W/m2
15:05 49.0 °F 47.3 °F 29.92 in SE 13.0 mph 20.0 mph 94 % 0.22 in 11.00 W/m2
15:10 49.0 °F 47.3 °F 29.93 in SSE 10.0 mph 21.0 mph 94 % 0.20 in 9.00 W/m2
15:15 48.9 °F 47.2 °F 29.93 in SE 4.0 mph 18.0 mph 94 % 0.79 in 9.00 W/m2
15:20 48.9 °F 47.2 °F 29.93 in SSE 5.0 mph 18.0 mph 94 % 0.31 in 9.00 W/m2
15:25 48.9 °F 47.2 °F 29.93 in SE 8.0 mph 21.0 mph 94 % 0.46 in 7.00 W/m2
15:30 48.9 °F 47.2 °F 29.93 in SSE 12.0 mph 18.0 mph 94 % 0.21 in 9.00 W/m2
15:35 48.9 °F 47.2 °F 29.93 in SE 18.0 mph 21.0 mph 94 % 0.15 in 9.00 W/m2
15:40 48.9 °F 47.2 °F 29.93 in SE 7.0 mph 22.0 mph 94 % 0.16 in 9.00 W/m2
15:45 49.0 °F 47.3 °F 29.94 in SSE 6.0 mph 19.0 mph 94 % 0.14 in 7.00 W/m2
15:50 49.0 °F 47.3 °F 29.93 in SSE 11.0 mph 20.0 mph 94 % 0.30 in 5.00 W/m2
15:55 49.0 °F 47.3 °F 29.94 in SE 11.0 mph 17.0 mph 94 % 0.47 in 5.00 W/m2
16:00 49.0 °F 47.3 °F 29.94 in SSE 6.0 mph 16.0 mph 94 % 0.24 in 0.00 W/m2
16:05 49.1 °F 47.5 °F 29.93 in SSE 13.0 mph 14.0 mph 94 % 0.40 in 5.00 W/m2
16:10 49.1 °F 47.7 °F 29.93 in SE 9.0 mph 22.0 mph 95 % 1.06 in 0.00 W/m2
16:15 49.1 °F 47.7 °F 29.93 in SSE 10.0 mph 14.0 mph 95 % 0.33 in 0.00 W/m2
16:20 49.1 °F 47.7 °F 29.93 in SSE 12.0 mph 13.0 mph 95 % 0.20 in 0.00 W/m2
16:25 49.1 °F 47.7 °F 29.92 in SSE 9.0 mph 17.0 mph 95 % 0.22 in 0.00 W/m2
16:30 49.2 °F 47.8 °F 29.92 in South 7.0 mph 18.0 mph 95 % 0.10 in 0.00 W/m2
16:35 49.3 °F 47.9 °F 29.92 in South 7.0 mph 18.0 mph 95 % 0.34 in 0.00 W/m2
16:40 49.4 °F 48.0 °F 29.92 in SSE 13.0 mph 16.0 mph 95 % 0.23 in 0.00 W/m2
16:45 49.5 °F 48.1 °F 29.91 in SE 12.0 mph 16.0 mph 95 % 0.10 in 0.00 W/m2
16:50 49.6 °F 48.2 °F 29.91 in SE 13.0 mph 18.0 mph 95 % 0.06 in 0.00 W/m2
16:55 49.7 °F 48.3 °F 29.92 in SE 6.0 mph 16.0 mph 95 % 0.06 in 0.00 W/m2
17:00 49.8 °F 48.4 °F 29.91 in SSE 9.0 mph 12.0 mph 95 % 0.23 in 0.00 W/m2
17:05 49.9 °F 48.5 °F 29.91 in SSE 8.0 mph 19.0 mph 95 % 0.42 in 0.00 W/m2
17:10 49.9 °F 48.5 °F 29.91 in South 1.0 mph 15.0 mph 95 % 0.18 in 0.00 W/m2
17:15 50.0 °F 48.6 °F 29.91 in South 7.0 mph 13.0 mph 95 % 0.33 in 0.00 W/m2
17:20 50.1 °F 48.7 °F 29.91 in South 15.0 mph 17.0 mph 95 % 0.20 in 0.00 W/m2
17:25 50.2 °F 48.8 °F 29.91 in South 9.0 mph 16.0 mph 95 % 0.17 in 0.00 W/m2
17:30 50.3 °F 48.9 °F 29.91 in SSW 6.0 mph 13.0 mph 95 % 0.12 in 0.00 W/m2
17:35 50.4 °F 49.0 °F 29.91 in SSW 1.0 mph 12.0 mph 95 % 0.36 in 0.00 W/m2
17:40 50.4 °F 49.0 °F 29.91 in SSW 5.0 mph 5.0 mph 95 % 0.39 in 0.00 W/m2
17:45 50.5 °F 49.1 °F 29.92 in SSW 8.0 mph 11.0 mph 95 % 0.43 in 0.00 W/m2
17:50 50.5 °F 49.1 °F 29.92 in Calm   9.0 mph 95 % 0.29 in 0.00 W/m2
17:55 50.6 °F 49.2 °F 29.91 in Calm     95 % 0.34 in 0.00 W/m2
18:00 50.5 °F 49.1 °F 29.91 in Calm   1.0 mph 95 % 0.17 in 0.00 W/m2
18:05 50.3 °F 48.9 °F 29.91 in SW 6.0 mph 6.0 mph 95 % 0.12 in 0.00 W/m2
18:10 50.1 °F 48.7 °F 29.91 in WSW 6.0 mph 7.0 mph 95 % 0.12 in 0.00 W/m2
18:15 50.0 °F 48.6 °F 29.91 in Calm   1.0 mph 95 % 0.17 in 0.00 W/m2
18:20 49.9 °F 48.5 °F 29.91 in SW 10.0 mph 10.0 mph 95 % 0.08 in 0.00 W/m2
18:26 49.7 °F 48.3 °F 29.91 in SW 10.0 mph 12.0 mph 95 % 0.16 in 0.00 W/m2
18:31 49.7 °F 48.3 °F 29.91 in South 12.0 mph 13.0 mph 95 % 0.14 in 0.00 W/m2
18:36 49.6 °F 48.2 °F 29.91 in Calm     95 % 0.17 in 0.00 W/m2
18:41 49.6 °F 48.2 °F 29.91 in SSW 9.0 mph 12.0 mph 95 % 0.31 in 0.00 W/m2
18:46 49.7 °F 48.3 °F 29.91 in SSW 2.0 mph 5.0 mph 95 % 0.17 in 0.00 W/m2
18:51 49.7 °F 48.3 °F 29.91 in SSE 9.0 mph 11.0 mph 95 % 0.18 in 0.00 W/m2
18:56 49.7 °F 48.3 °F 29.91 in SW 5.0 mph 8.0 mph 95 % 0.26 in 0.00 W/m2
19:01 49.8 °F 48.4 °F 29.92 in West 4.0 mph 8.0 mph 95 % 0.61 in 0.00 W/m2
19:06 49.8 °F 48.4 °F 29.91 in SW 6.0 mph 7.0 mph 95 % 0.27 in 0.00 W/m2
19:11 49.9 °F 48.5 °F 29.91 in SW 7.0 mph 11.0 mph 95 % 0.19 in 0.00 W/m2
19:16 49.8 °F 48.4 °F 29.91 in Calm   15.0 mph 95 % 0.14 in 0.00 W/m2
19:18 49.8 °F 48.4 °F 29.91 in SW 4.0 mph 15.0 mph 95 % 0.14 in 0.00 W/m2
19:21 49.8 °F 48.4 °F 29.91 in WSW 14.0 mph 20.0 mph 95 % 0.09 in 0.00 W/m2
19:26 49.7 °F 48.3 °F 29.91 in SW 9.0 mph 17.0 mph 95 % 0.13 in 0.00 W/m2
19:31 49.6 °F 48.2 °F 29.91 in SW 8.0 mph 15.0 mph 95 % 0.12 in 0.00 W/m2
19:36 49.6 °F 48.2 °F 29.91 in WSW 1.0 mph 13.0 mph 95 % 0.07 in 0.00 W/m2
19:41 49.6 °F 48.5 °F 29.91 in SW 9.0 mph 14.0 mph 96 % 0.18 in 0.00 W/m2
19:46 49.6 °F 48.5 °F 29.91 in SW 3.0 mph 11.0 mph 96 % 0.21 in 0.00 W/m2
19:51 49.6 °F 48.5 °F 29.91 in SSW 9.0 mph 10.0 mph 96 % 0.44 in 0.00 W/m2
19:56 49.6 °F 48.5 °F 29.92 in SSW 7.0 mph 11.0 mph 96 % 0.25 in 0.00 W/m2
20:01 49.6 °F 48.5 °F 29.91 in SW 5.0 mph 18.0 mph 96 % 0.25 in 0.00 W/m2
20:06 49.5 °F 48.1 °F 29.91 in SW 12.0 mph 12.0 mph 95 % 0.13 in 0.00 W/m2
20:11 49.4 °F 48.0 °F 29.91 in WSW 8.0 mph 18.0 mph 95 % 0.10 in 0.00 W/m2
20:16 49.4 °F 48.0 °F 29.91 in Calm   3.0 mph 95 % 0.22 in 0.00 W/m2
20:21 49.3 °F 47.9 °F 29.90 in West 7.0 mph 11.0 mph 95 % 0.37 in 0.00 W/m2
20:26 49.3 °F 47.9 °F 29.91 in Calm   7.0 mph 95 % 0.14 in 0.00 W/m2
20:31 49.2 °F 47.8 °F 29.90 in Calm   9.0 mph 95 % 0.27 in 0.00 W/m2
20:36 49.2 °F 47.8 °F 29.90 in Calm   8.0 mph 95 % 0.20 in 0.00 W/m2
20:41 49.1 °F 47.7 °F 29.90 in SW 7.0 mph 10.0 mph 95 % 0.12 in 0.00 W/m2
20:46 49.1 °F 47.7 °F 29.90 in Calm     95 % 0.48 in 0.00 W/m2
20:51 49.0 °F 47.9 °F 29.90 in Calm     96 % 0.25 in 0.00 W/m2
20:56 49.0 °F 47.9 °F 29.90 in Calm   12.0 mph 96 % 0.17 in 0.00 W/m2
21:02 48.9 °F 47.5 °F 29.90 in WSW 7.0 mph 11.0 mph 95 % 0.26 in 0.00 W/m2
21:06 48.9 °F 47.5 °F 29.89 in South 4.0 mph 11.0 mph 95 % 0.26 in 0.00 W/m2
21:11 48.9 °F 47.5 °F 29.90 in WSW 8.0 mph 11.0 mph 95 % 0.12 in 0.00 W/m2
21:17 48.8 °F 47.4 °F 29.91 in WSW 5.0 mph 20.0 mph 95 % 0.07 in 0.00 W/m2
21:22 48.6 °F 47.2 °F 29.91 in WSW 13.0 mph 16.0 mph 95 % 0.07 in 0.00 W/m2
21:27 48.3 °F 46.9 °F 29.91 in SW 4.0 mph 8.0 mph 95 % 0.42 in 0.00 W/m2
21:32 48.1 °F 46.7 °F 29.91 in SW 8.0 mph 15.0 mph 95 % 0.13 in 0.00 W/m2
21:37 47.9 °F 46.5 °F 29.92 in SW 2.0 mph 12.0 mph 95 % 0.06 in 0.00 W/m2
21:42 47.8 °F 46.4 °F 29.91 in SW 14.0 mph 21.0 mph 95 % 0.05 in 0.00 W/m2
21:47 47.6 °F 46.2 °F 29.92 in WSW 3.0 mph 15.0 mph 95 % 0.05 in 0.00 W/m2
21:52 47.5 °F 46.1 °F 29.91 in WSW 1.0 mph 12.0 mph 95 % 0.05 in 0.00 W/m2
21:57 47.3 °F 45.9 °F 29.91 in SW 2.0 mph 2.0 mph 95 % 0.04 in 0.00 W/m2
22:02 47.3 °F 45.9 °F 29.92 in SW 13.0 mph 18.0 mph 95 % 0.00 in 0.00 W/m2
22:07 47.2 °F 45.8 °F 29.91 in WSW 7.0 mph 15.0 mph 95 % 0.00 in 0.00 W/m2
22:12 47.1 °F 45.7 °F 29.91 in SSW 7.0 mph 14.0 mph 95 % 0.00 in 0.00 W/m2
22:17 47.0 °F 45.7 °F 29.91 in Calm   4.0 mph 95 % 0.00 in 0.00 W/m2
22:22 46.8 °F 45.5 °F 29.91 in SW 4.0 mph 12.0 mph 95 % 0.00 in 0.00 W/m2
22:27 46.6 °F 45.2 °F 29.91 in Calm     95 % 0.00 in 0.00 W/m2
22:29 46.6 °F 45.2 °F 29.91 in South 2.0 mph 15.0 mph 95 % 0.00 in 0.00 W/m2
22:33 46.5 °F 45.2 °F 29.91 in SW 10.0 mph 12.0 mph 95 % 0.00 in 0.00 W/m2
22:38 46.4 °F 45.0 °F 29.91 in Calm   5.0 mph 95 % 0.00 in 0.00 W/m2
22:43 46.3 °F 45.0 °F 29.91 in Calm     95 % 0.00 in 0.00 W/m2
22:48 46.3 °F 45.0 °F 29.91 in SSW 8.0 mph 13.0 mph 95 % 0.00 in 0.00 W/m2
22:53 46.2 °F 44.8 °F 29.91 in Calm   1.0 mph 95 % 0.00 in 0.00 W/m2
22:58 46.1 °F 44.8 °F 29.92 in SW 1.0 mph 11.0 mph 95 % 0.00 in 0.00 W/m2
23:03 46.0 °F 44.7 °F 29.92 in WSW 1.0 mph 9.0 mph 95 % 0.00 in 0.00 W/m2
23:08 45.9 °F 44.5 °F 29.92 in Calm   7.0 mph 95 % 0.00 in 0.00 W/m2
23:13 45.8 °F 44.5 °F 29.92 in SW 3.0 mph 12.0 mph 95 % 0.00 in 0.00 W/m2
23:18 45.8 °F 44.5 °F 29.92 in Calm   9.0 mph 95 % 0.00 in 0.00 W/m2
23:23 45.7 °F 44.3 °F 29.92 in Calm     95 % 0.00 in 0.00 W/m2
23:28 45.7 °F 44.3 °F 29.92 in SSW 6.0 mph 14.0 mph 95 % 0.00 in 0.00 W/m2
23:33 45.7 °F 44.3 °F 29.92 in South 6.0 mph 10.0 mph 95 % 0.00 in 0.00 W/m2
23:38 45.6 °F 44.2 °F 29.93 in Calm   8.0 mph 95 % 0.00 in 0.00 W/m2
23:43 45.6 °F 44.2 °F 29.92 in Calm     95 % 0.00 in 0.00 W/m2
23:48 45.5 °F 44.2 °F 29.92 in Calm     95 % 0.00 in 0.00 W/m2
23:53 45.5 °F 44.2 °F 29.92 in Calm     95 % 0.00 in 0.00 W/m2
23:58 45.4 °F 44.0 °F 29.92 in Calm     95 % 0.00 in 0.00 W/m2
Juneau County Weather
Compliments of Weather Underground - 4.5 mb
 WU-history PHP script courtesy of   Juneau County Weather.
powered by Cumulus v1.9.3 (1059)
Ambient Weather VWS v14.00
Top Contact Website Map Copyright © 2007 - 2018 Foresthillweather.com Never base important decisions on this or any weather information obtained from the Internet